Time;durP1;ratioP1;P1;durP2;ratioP2;P2;SDS_P1;SDS_P2;PMS_P1;PMS_P2;Temp;Humidity;BMP_temperature;BMP_pressure;BME280_temperature;BME280_humidity;BME280_pressure;Samples;Min_cycle;Max_cycle;Signal;HPM_P1;HPM_P2
2023/03/05 00:01:55;;;;;;;20.40;10.10;;;;;;;2.12;77.92;95808.25;5031013;28;20213;-80
2023/03/05 00:04:21;;;;;;;19.87;10.00;;;;;;;2.11;78.07;95805.75;5009012;28;20183;-81
2023/03/05 00:06:46;;;;;;;16.17;9.17;;;;;;;2.12;78.14;95805.69;5027221;28;20202;-81
2023/03/05 00:09:11;;;;;;;17.47;9.40;;;;;;;2.10;78.11;95801.56;5034761;28;20221;-81
2023/03/05 00:11:37;;;;;;;21.50;10.23;;;;;;;2.06;78.37;95800.09;5022734;28;20596;-81
2023/03/05 00:14:03;;;;;;;18.67;9.60;;;;;;;2.03;79.21;95801.06;5041243;28;20190;-80
2023/03/05 00:16:29;;;;;;;24.97;10.93;;;;;;;2.06;78.77;95805.22;5018216;28;20210;-80
2023/03/05 00:18:57;;;;;;;20.13;10.73;;;;;;;2.10;78.80;95797.25;5014321;28;20255;-81
2023/03/05 00:21:28;;;;;;;22.40;10.93;;;;;;;2.07;79.16;95802.56;5007359;28;20198;-82
2023/03/05 00:23:54;;;;;;;21.20;11.20;;;;;;;1.97;79.86;95797.16;5027908;28;20186;-82
2023/03/05 00:26:22;;;;;;;23.20;11.33;;;;;;;1.94;81.15;95791.38;5016615;28;20201;-82
2023/03/05 00:28:51;;;;;;;21.03;10.57;;;;;;;1.92;81.31;95794.03;5030229;28;20659;-81
2023/03/05 00:31:19;;;;;;;24.80;12.40;;;;;;;1.86;81.55;95802.09;5056008;28;20197;-81
2023/03/05 00:33:44;;;;;;;22.30;11.43;;;;;;;1.85;82.01;95795.28;5014078;28;20183;-82
2023/03/05 00:36:09;;;;;;;26.33;13.17;;;;;;;1.83;81.74;95789.44;5035879;28;20241;-81
2023/03/05 00:38:35;;;;;;;22.17;12.87;;;;;;;1.84;82.28;95790.25;5022731;28;20202;-81
2023/03/05 00:41:00;;;;;;;25.63;12.17;;;;;;;1.84;82.20;95792.81;5035006;28;20191;-82
2023/03/05 00:43:26;;;;;;;19.53;10.90;;;;;;;1.82;82.82;95782.66;5016446;28;20199;-81
2023/03/05 00:45:51;;;;;;;20.77;11.00;;;;;;;1.84;82.77;95780.84;5050735;28;20203;-81
2023/03/05 00:48:16;;;;;;;23.73;11.03;;;;;;;1.83;82.87;95779.19;5040422;28;20217;-82
2023/03/05 00:50:42;;;;;;;20.87;10.40;;;;;;;1.88;82.39;95778.94;5034352;28;20195;-81
2023/03/05 00:53:07;;;;;;;20.93;10.53;;;;;;;1.95;82.04;95778.50;5030016;28;20191;-80
2023/03/05 00:55:34;;;;;;;18.63;10.07;;;;;;;1.92;82.57;95773.53;5025727;28;20215;-82
2023/03/05 00:58:00;;;;;;;21.33;10.50;;;;;;;1.92;82.44;95776.09;5034941;28;20182;-82
2023/03/05 01:00:25;;;;;;;19.27;9.57;;;;;;;1.91;82.41;95768.50;5035077;28;20554;-80
2023/03/05 01:02:50;;;;;;;22.13;10.83;;;;;;;1.95;82.30;95768.25;5019248;28;20195;-82
2023/03/05 01:05:16;;;;;;;21.27;9.80;;;;;;;1.97;82.56;95766.41;5014244;28;20212;-82
2023/03/05 01:07:41;;;;;;;19.13;9.83;;;;;;;1.91;82.68;95760.81;5017613;28;20195;-82
2023/03/05 01:10:07;;;;;;;19.27;9.93;;;;;;;1.82;83.51;95762.19;5032662;28;20574;-81
2023/03/05 01:12:32;;;;;;;21.17;9.27;;;;;;;1.92;82.80;95763.28;5026140;28;20202;-82
2023/03/05 01:14:58;;;;;;;19.13;10.30;;;;;;;1.92;83.14;95758.16;5027452;28;20210;-81
2023/03/05 01:17:23;;;;;;;20.97;10.20;;;;;;;1.99;82.53;95751.78;5017088;28;20199;-82
2023/03/05 01:19:48;;;;;;;21.30;10.53;;;;;;;1.92;83.36;95754.78;5028206;28;20182;-81
2023/03/05 01:22:13;;;;;;;20.73;11.70;;;;;;;1.97;83.18;95751.06;5032893;28;20187;-82
2023/03/05 01:24:39;;;;;;;22.97;11.53;;;;;;;1.92;83.04;95753.03;5019606;28;20431;-82
2023/03/05 01:27:04;;;;;;;19.93;10.70;;;;;;;1.93;83.36;95744.44;5012947;28;20202;-81
2023/03/05 01:29:29;;;;;;;22.23;10.37;;;;;;;1.94;83.47;95745.28;5024872;28;20179;-81
2023/03/05 01:31:58;;;;;;;21.30;11.33;;;;;;;1.95;83.46;95744.38;5010433;28;20561;-81
2023/03/05 01:34:23;;;;;;;20.93;10.87;;;;;;;1.96;83.80;95744.28;5014525;28;20575;-80
2023/03/05 01:36:51;;;;;;;25.37;11.30;;;;;;;1.95;83.80;95740.06;5026728;28;20210;-81
2023/03/05 01:39:16;;;;;;;19.13;9.93;;;;;;;1.92;84.56;95737.69;5007065;28;20222;-80
2023/03/05 01:41:42;;;;;;;19.30;10.33;;;;;;;1.94;84.75;95733.31;5011658;28;20217;-82
2023/03/05 01:44:19;;;;;;;22.17;10.87;;;;;;;1.93;85.27;95733.38;5033004;28;20320;-81
2023/03/05 01:46:45;;;;;;;20.97;10.37;;;;;;;1.91;85.33;95732.66;5021010;28;20206;-81
2023/03/05 01:49:20;;;;;;;19.83;10.50;;;;;;;1.93;85.14;95728.25;5020642;28;20258;-81
2023/03/05 01:52:07;;;;;;;19.07;9.67;;;;;;;1.97;85.05;95728.00;5033704;28;20202;-81
2023/03/05 01:54:42;;;;;;;22.27;10.17;;;;;;;1.91;85.15;95720.66;5038958;28;20178;-80
2023/03/05 01:57:11;;;;;;;20.40;9.33;;;;;;;1.88;84.83;95725.16;5020048;28;20718;-80
2023/03/05 01:59:39;;;;;;;17.37;8.73;;;;;;;1.88;84.45;95718.31;5016587;28;20240;-82
2023/03/05 02:02:06;;;;;;;20.33;10.20;;;;;;;1.97;84.10;95714.38;5017540;28;20244;-80
2023/03/05 02:04:38;;;;;;;19.40;9.27;;;;;;;1.96;84.40;95710.16;5020847;28;20187;-79
2023/03/05 02:07:04;;;;;;;21.00;10.03;;;;;;;1.94;84.54;95710.25;5009414;28;20205;-81
2023/03/05 02:09:29;;;;;;;17.57;9.07;;;;;;;1.97;84.32;95707.50;5030458;28;20182;-79
2023/03/05 02:11:55;;;;;;;21.70;10.40;;;;;;;2.02;83.75;95702.09;5036624;28;20194;-80
2023/03/05 02:14:23;;;;;;;21.60;9.97;;;;;;;2.05;83.64;95701.94;5017694;28;20190;-81
2023/03/05 02:16:48;;;;;;;26.50;10.97;;;;;;;1.97;84.21;95699.81;5010411;28;20221;-80
2023/03/05 02:19:13;;;;;;;20.83;10.07;;;;;;;2.01;83.73;95694.50;5016328;28;20207;-79
2023/03/05 02:21:44;;;;;;;21.77;10.20;;;;;;;2.00;84.06;95693.69;5019733;28;20201;-80
2023/03/05 02:24:12;;;;;;;20.77;9.73;;;;;;;2.07;83.63;95694.97;5033649;28;20265;-79
2023/03/05 02:26:37;;;;;;;19.20;9.23;;;;;;;2.03;83.85;95692.66;5029027;28;20198;-80
2023/03/05 02:29:04;;;;;;;20.87;10.00;;;;;;;2.03;83.96;95687.56;5034878;28;20208;-79
2023/03/05 02:31:30;;;;;;;21.70;9.97;;;;;;;2.05;83.52;95694.25;5017724;28;20189;-79
2023/03/05 02:33:55;;;;;;;22.07;10.60;;;;;;;2.00;83.41;95686.00;5028616;28;20186;-80
2023/03/05 02:36:22;;;;;;;21.77;10.40;;;;;;;1.95;83.71;95691.41;5015431;28;20215;-80
2023/03/05 02:38:48;;;;;;;25.80;11.20;;;;;;;2.05;83.34;95693.44;5002591;28;20206;-79
2023/03/05 02:41:13;;;;;;;24.83;10.23;;;;;;;2.03;83.68;95682.44;5036947;28;20576;-80
2023/03/05 02:43:40;;;;;;;22.00;10.77;;;;;;;2.04;83.48;95684.09;5037159;28;20209;-80
2023/03/05 02:46:05;;;;;;;20.53;11.10;;;;;;;2.01;83.76;95685.09;5033675;28;20213;-80
2023/03/05 02:48:31;;;;;;;18.50;10.43;;;;;;;1.98;83.61;95675.84;5033295;28;20198;-80
2023/03/05 02:50:56;;;;;;;23.57;11.07;;;;;;;1.98;83.28;95680.16;5025416;28;20218;-80
2023/03/05 02:53:22;;;;;;;24.77;10.87;;;;;;;1.99;83.39;95674.13;5030568;28;20187;-79
2023/03/05 02:55:48;;;;;;;20.57;11.03;;;;;;;2.03;83.49;95673.00;5034259;28;20210;-78
2023/03/05 02:58:14;;;;;;;21.77;10.17;;;;;;;1.99;83.41;95671.56;5035327;28;20190;-80
2023/03/05 03:00:39;;;;;;;23.30;10.83;;;;;;;1.93;83.78;95666.78;5007546;28;20270;-79
2023/03/05 03:03:05;;;;;;;22.87;10.27;;;;;;;1.96;83.04;95661.50;5021581;28;20187;-80
2023/03/05 03:05:30;;;;;;;23.00;11.03;;;;;;;1.94;83.45;95664.16;5003214;28;20194;-78
2023/03/05 03:07:55;;;;;;;19.00;9.50;;;;;;;1.96;83.17;95661.50;5008134;28;20186;-79
2023/03/05 03:10:21;;;;;;;18.93;9.90;;;;;;;1.97;83.80;95660.59;5013881;28;20213;-80
2023/03/05 03:12:46;;;;;;;20.23;10.17;;;;;;;1.92;83.65;95655.72;5033643;28;20669;-80
2023/03/05 03:15:13;;;;;;;23.70;11.20;;;;;;;1.97;83.64;95655.47;5045254;28;20211;-80
2023/03/05 03:17:38;;;;;;;25.93;11.20;;;;;;;1.97;83.59;95658.84;5025610;28;20201;-80
2023/03/05 03:20:07;;;;;;;21.73;10.67;;;;;;;1.93;83.66;95652.25;5003882;28;20187;-81
2023/03/05 03:22:32;;;;;;;23.50;10.83;;;;;;;1.95;83.22;95650.44;5018866;28;20191;-79
2023/03/05 03:24:58;;;;;;;21.77;10.37;;;;;;;1.93;83.34;95647.13;5026759;28;20732;-79
2023/03/05 03:27:23;;;;;;;23.23;11.67;;;;;;;1.87;83.63;95644.97;5032052;28;20600;-79
2023/03/05 03:29:49;;;;;;;23.10;10.50;;;;;;;1.92;83.20;95640.34;5038917;28;20188;-80
2023/03/05 03:32:14;;;;;;;25.40;11.00;;;;;;;1.94;83.08;95643.69;5033253;28;20186;-80
2023/03/05 03:34:39;;;;;;;20.87;10.53;;;;;;;2.01;82.94;95643.28;5027132;28;20191;-80
2023/03/05 03:37:05;;;;;;;21.80;10.53;;;;;;;1.97;82.68;95638.34;5006426;28;20179;-79
2023/03/05 03:39:30;;;;;;;23.13;11.20;;;;;;;2.02;82.52;95639.81;5005901;28;20186;-80
2023/03/05 03:41:55;;;;;;;22.33;10.70;;;;;;;1.97;82.92;95630.66;5010432;28;20686;-80
2023/03/05 03:44:21;;;;;;;24.07;11.53;;;;;;;2.02;82.88;95627.81;5024916;28;20207;-78
2023/03/05 03:46:47;;;;;;;22.37;11.63;;;;;;;1.98;82.94;95627.19;5019539;28;20214;-80
2023/03/05 03:49:15;;;;;;;23.80;10.93;;;;;;;1.93;83.29;95630.94;5043086;28;20178;-79
2023/03/05 03:51:40;;;;;;;21.60;10.97;;;;;;;1.95;82.96;95629.13;5010239;28;20182;-78
2023/03/05 03:54:05;;;;;;;24.33;12.40;;;;;;;1.92;82.98;95629.28;5004738;28;20191;-79
2023/03/05 03:56:31;;;;;;;20.00;9.80;;;;;;;1.95;82.75;95624.81;5003246;28;20241;-80
2023/03/05 03:58:56;;;;;;;21.80;11.63;;;;;;;1.94;83.10;95627.47;5026634;28;20278;-79
2023/03/05 04:01:21;;;;;;;20.70;10.77;;;;;;;1.93;83.17;95629.19;5014984;28;20210;-79
2023/03/05 04:03:46;;;;;;;23.40;12.13;;;;;;;1.92;83.20;95629.28;5037504;28;20214;-80
2023/03/05 04:06:12;;;;;;;25.67;11.67;;;;;;;1.90;83.19;95621.72;5031146;28;20229;-79
2023/03/05 04:08:37;;;;;;;18.93;10.73;;;;;;;1.95;82.84;95617.16;5020282;28;20661;-80
2023/03/05 04:11:03;;;;;;;21.97;11.07;;;;;;;1.94;83.02;95618.06;5004406;28;20199;-80
2023/03/05 04:13:28;;;;;;;22.43;11.93;;;;;;;1.85;83.19;95618.59;5003274;28;20195;-79
2023/03/05 04:15:54;;;;;;;24.83;12.03;;;;;;;1.92;82.79;95612.19;5007785;28;20225;-81
2023/03/05 04:18:19;;;;;;;18.83;10.37;;;;;;;1.96;82.64;95612.84;5031675;28;20556;-80
2023/03/05 04:20:44;;;;;;;24.30;11.67;;;;;;;1.90;82.64;95615.78;5035873;28;20191;-80
2023/03/05 04:23:10;;;;;;;21.03;10.93;;;;;;;1.93;82.55;95618.13;5015487;28;20642;-79
2023/03/05 04:25:35;;;;;;;27.20;11.83;;;;;;;1.84;83.06;95608.44;5009944;28;20331;-80
2023/03/05 04:28:00;;;;;;;21.20;11.73;;;;;;;1.89;83.03;95612.38;5020970;28;20210;-80
2023/03/05 04:30:26;;;;;;;28.47;11.67;;;;;;;1.88;82.78;95603.06;5003476;28;20198;-80
2023/03/05 04:32:51;;;;;;;26.07;12.67;;;;;;;1.91;82.44;95607.97;5025568;28;20215;-80
2023/03/05 04:35:16;;;;;;;23.30;11.93;;;;;;;1.94;82.50;95607.81;5012942;28;20211;-77
2023/03/05 04:37:42;;;;;;;23.83;11.73;;;;;;;1.90;82.84;95608.09;5021792;28;20198;-79
2023/03/05 04:40:08;;;;;;;20.73;11.40;;;;;;;1.91;82.94;95596.91;5015415;28;20190;-80
2023/03/05 04:42:33;;;;;;;25.60;12.17;;;;;;;1.86;82.79;95602.34;5010301;28;20674;-80
2023/03/05 04:44:58;;;;;;;24.23;12.57;;;;;;;1.94;82.84;95591.59;5021674;28;20207;-80
2023/03/05 04:47:25;;;;;;;28.03;14.83;;;;;;;1.89;82.57;95594.47;5019495;28;20217;-79
2023/03/05 04:49:50;;;;;;;30.70;15.27;;;;;;;1.88;83.11;95595.38;5024791;28;20269;-79
2023/03/05 04:52:15;;;;;;;35.73;14.93;;;;;;;1.83;83.16;95588.88;5046304;28;20195;-80
2023/03/05 04:54:41;;;;;;;27.57;13.63;;;;;;;1.85;82.75;95592.16;5017507;28;20214;-80
2023/03/05 04:57:06;;;;;;;29.50;14.03;;;;;;;1.87;82.68;95587.78;5032399;28;20222;-79
2023/03/05 04:59:31;;;;;;;29.60;13.83;;;;;;;1.86;83.14;95597.22;5045728;28;20167;-78
2023/03/05 05:01:57;;;;;;;29.27;14.27;;;;;;;1.88;82.80;95582.56;5032485;28;20175;-78
2023/03/05 05:04:22;;;;;;;26.00;13.13;;;;;;;1.87;82.63;95586.06;5048182;28;20171;-77
2023/03/05 05:06:47;;;;;;;28.13;13.07;;;;;;;1.85;82.95;95581.94;5044619;28;20199;-79
2023/03/05 05:09:13;;;;;;;27.20;13.23;;;;;;;1.84;82.75;95572.59;5028768;28;20216;-78
2023/03/05 05:11:38;;;;;;;25.17;13.50;;;;;;;1.83;83.18;95586.31;5020792;28;20631;-79
2023/03/05 05:14:04;;;;;;;29.80;13.23;;;;;;;1.79;83.01;95593.38;5035820;28;20209;-80
2023/03/05 05:16:29;;;;;;;25.33;13.17;;;;;;;1.77;83.05;95584.13;5024290;28;20633;-79
2023/03/05 05:18:54;;;;;;;26.03;13.17;;;;;;;1.80;83.08;95569.41;5025873;28;20546;-78
2023/03/05 05:21:20;;;;;;;25.07;12.33;;;;;;;1.80;83.00;95577.09;5026378;28;20194;-81
2023/03/05 05:23:45;;;;;;;25.80;12.50;;;;;;;1.81;83.24;95572.78;5037477;28;20182;-80
2023/03/05 05:26:13;;;;;;;24.17;13.10;;;;;;;1.80;82.83;95579.66;5029258;28;20199;-81
2023/03/05 05:28:40;;;;;;;24.60;13.17;;;;;;;1.78;83.17;95576.38;5022482;28;20187;-80
2023/03/05 05:31:07;;;;;;;25.80;12.60;;;;;;;1.81;83.19;95581.31;5016003;28;20186;-79
2023/03/05 05:33:32;;;;;;;27.97;12.80;;;;;;;1.77;83.00;95581.56;5042472;28;20198;-80
2023/03/05 05:35:57;;;;;;;23.80;12.70;;;;;;;1.81;83.07;95586.41;5020103;28;20207;-79
2023/03/05 05:38:22;;;;;;;25.50;13.17;;;;;;;1.77;83.15;95584.97;5018450;28;20207;-79
2023/03/05 05:40:48;;;;;;;24.07;12.57;;;;;;;1.80;82.83;95576.28;5007982;28;20817;-80
2023/03/05 05:43:13;;;;;;;25.33;13.17;;;;;;;1.78;82.71;95581.50;5015578;28;20205;-79
2023/03/05 05:45:38;;;;;;;22.27;12.63;;;;;;;1.79;83.05;95582.31;5038242;28;20199;-81
2023/03/05 05:48:04;;;;;;;23.37;12.83;;;;;;;1.80;83.00;95582.22;5021293;28;20626;-80
2023/03/05 05:50:29;;;;;;;25.33;12.80;;;;;;;1.80;82.84;95576.28;5030012;28;20201;-80
2023/03/05 05:52:54;;;;;;;29.00;12.10;;;;;;;1.80;82.99;95581.41;5023555;28;20638;-80
2023/03/05 05:55:20;;;;;;;25.53;13.20;;;;;;;1.74;82.99;95579.19;5037369;28;20218;-81
2023/03/05 05:57:45;;;;;;;26.23;12.90;;;;;;;1.75;82.87;95581.66;5009930;28;20189;-79
2023/03/05 06:00:13;;;;;;;28.33;13.73;;;;;;;1.76;83.10;95583.31;5033285;28;20202;-79
2023/03/05 06:02:39;;;;;;;22.07;12.67;;;;;;;1.79;83.29;95580.56;5038098;28;20217;-81
2023/03/05 06:05:05;;;;;;;25.00;13.03;;;;;;;1.79;82.86;95574.63;5018998;28;20257;-78
2023/03/05 06:07:30;;;;;;;27.73;13.50;;;;;;;1.77;82.92;95579.84;5041068;28;20259;-79
2023/03/05 06:09:56;;;;;;;22.53;12.77;;;;;;;1.78;82.83;95573.00;5025718;28;20224;-78
2023/03/05 06:12:21;;;;;;;32.53;13.93;;;;;;;1.75;83.16;95576.53;5023454;28;20191;-78
2023/03/05 06:14:47;;;;;;;25.23;13.33;;;;;;;1.78;82.99;95565.31;5049897;28;20654;-79
2023/03/05 06:17:12;;;;;;;25.13;13.90;;;;;;;1.80;82.83;95563.47;5029167;28;20722;-79
2023/03/05 06:19:37;;;;;;;25.63;14.37;;;;;;;1.81;82.99;95565.13;5036509;28;20178;-79
2023/03/05 06:22:02;;;;;;;27.47;14.63;;;;;;;1.81;82.99;95568.50;5035478;28;20659;-79
2023/03/05 06:24:28;;;;;;;27.60;13.60;;;;;;;1.84;82.38;95570.84;5031419;28;20187;-77
2023/03/05 06:26:53;;;;;;;25.37;13.83;;;;;;;1.78;82.99;95573.00;5023264;28;20179;-78
2023/03/05 06:29:18;;;;;;;23.40;13.67;;;;;;;1.81;82.96;95565.94;5004104;28;20191;-78
2023/03/05 06:31:44;;;;;;;24.93;14.40;;;;;;;1.79;83.09;95566.97;5024783;28;20197;-78
2023/03/05 06:34:09;;;;;;;25.13;14.07;;;;;;;1.87;82.46;95570.69;5010097;28;20193;-78
2023/03/05 06:36:35;;;;;;;30.43;15.80;;;;;;;1.84;82.61;95565.75;5033913;28;20246;-79
2023/03/05 06:39:00;;;;;;;34.43;16.13;;;;;;;1.84;82.78;95564.91;5021369;28;20191;-76
2023/03/05 06:41:30;;;;;;;27.90;14.83;;;;;;;1.87;82.75;95554.50;5010078;28;20191;-79
2023/03/05 06:43:56;;;;;;;23.13;15.10;;;;;;;1.87;82.73;95557.88;5021808;28;20789;-78
2023/03/05 06:46:29;;;;;;;25.53;13.83;;;;;;;1.98;82.63;95564.91;5035598;28;20198;-79
2023/03/05 06:48:57;;;;;;;26.47;14.37;;;;;;;2.02;81.96;95555.28;5041045;28;20257;-78
2023/03/05 06:51:25;;;;;;;22.40;12.90;;;;;;;2.05;81.95;95553.38;5030148;28;20574;-79
2023/03/05 06:53:52;;;;;;;23.10;13.40;;;;;;;2.08;81.50;95554.91;5020306;28;20187;-79
2023/03/05 06:56:19;;;;;;;25.50;13.23;;;;;;;2.11;81.50;95558.09;5016471;28;20230;-79
2023/03/05 06:58:45;;;;;;;23.13;13.17;;;;;;;2.13;81.38;95547.75;5035473;28;20202;-81
2023/03/05 07:01:11;;;;;;;21.53;12.23;;;;;;;2.15;81.27;95554.44;5005376;28;20277;-79
2023/03/05 07:03:36;;;;;;;25.40;14.23;;;;;;;2.13;81.47;95546.03;5000643;28;20226;-81
2023/03/05 07:06:07;;;;;;;25.50;13.77;;;;;;;2.15;81.16;95554.44;5022847;28;20206;-78
2023/03/05 07:08:33;;;;;;;25.40;13.77;;;;;;;2.21;81.09;95551.50;5029756;28;20202;-79
2023/03/05 07:10:58;;;;;;;23.07;13.93;;;;;;;2.32;80.80;95555.09;5018936;28;20567;-80
2023/03/05 07:13:24;;;;;;;24.80;14.03;;;;;;;2.21;80.35;95548.09;5016452;28;20290;-80
2023/03/05 07:15:49;;;;;;;25.03;13.03;;;;;;;2.31;80.86;95549.16;5025756;28;20576;-79
2023/03/05 07:18:15;;;;;;;24.30;13.17;;;;;;;2.37;80.60;95546.19;5005973;28;20210;-79
2023/03/05 07:20:40;;;;;;;29.27;15.20;;;;;;;2.29;80.22;95538.16;5007357;28;20229;-78
2023/03/05 07:23:05;;;;;;;35.33;20.37;;;;;;;2.35;80.21;95537.78;5012536;28;20324;-77
2023/03/05 07:25:31;;;;;;;36.03;23.73;;;;;;;2.49;79.86;95549.72;5034011;28;20199;-78
2023/03/05 07:27:56;;;;;;;45.47;25.10;;;;;;;2.57;79.45;95550.06;5022427;28;20186;-78
2023/03/05 07:30:22;;;;;;;55.93;30.17;;;;;;;2.57;78.93;95549.25;5037933;28;20194;-79
2023/03/05 07:32:47;;;;;;;60.60;35.23;;;;;;;2.63;79.01;95552.22;5018652;28;20281;-78
2023/03/05 07:35:13;;;;;;;74.00;39.47;;;;;;;2.62;78.46;95548.00;5011758;28;20226;-81
2023/03/05 07:37:38;;;;;;;38.27;22.03;;;;;;;2.63;78.38;95543.69;5040978;28;20217;-78
2023/03/05 07:40:04;;;;;;;29.53;17.47;;;;;;;2.75;78.65;95548.03;5031061;28;20194;-78
2023/03/05 07:42:29;;;;;;;24.63;13.83;;;;;;;2.80;77.92;95545.97;5037283;28;20175;-79
2023/03/05 07:44:55;;;;;;;27.53;14.97;;;;;;;2.80;78.28;95546.81;5042484;28;21139;-79
2023/03/05 07:47:22;;;;;;;36.20;19.23;;;;;;;2.81;77.49;95542.50;5044096;28;20199;-78
2023/03/05 07:49:47;;;;;;;25.57;14.33;;;;;;;2.78;77.12;95540.16;5034481;28;20226;-79
2023/03/05 07:52:12;;;;;;;24.93;13.93;;;;;;;2.85;77.50;95549.09;5032533;28;20191;-78
2023/03/05 07:54:38;;;;;;;24.00;14.30;;;;;;;2.82;77.51;95544.13;5040594;28;20192;-78
2023/03/05 07:57:04;;;;;;;24.13;13.00;;;;;;;2.93;77.65;95544.28;5039186;28;20690;-79
2023/03/05 07:59:30;;;;;;;22.73;12.70;;;;;;;3.00;77.36;95544.66;5014804;28;20194;-78
2023/03/05 08:01:56;;;;;;;24.97;13.20;;;;;;;2.90;76.68;95535.94;5020810;28;20191;-78
2023/03/05 08:04:21;;;;;;;19.33;12.07;;;;;;;3.03;76.92;95542.75;5020727;28;20197;-78
2023/03/05 08:06:48;;;;;;;22.20;12.27;;;;;;;3.08;76.45;95532.97;5019992;28;20195;-79
2023/03/05 08:09:16;;;;;;;19.27;11.20;;;;;;;3.21;76.32;95530.41;5031507;28;20195;-79
2023/03/05 08:11:42;;;;;;;23.43;11.90;;;;;;;3.29;76.08;95533.28;5040327;28;20197;-81
2023/03/05 08:14:08;;;;;;;21.37;11.80;;;;;;;3.32;74.91;95538.22;5015311;28;20270;-80
2023/03/05 08:16:33;;;;;;;20.97;11.20;;;;;;;3.22;74.16;95536.38;5041879;28;20210;-80
2023/03/05 08:18:58;;;;;;;23.00;12.87;;;;;;;3.35;74.13;95537.16;5013796;28;20195;-79
2023/03/05 08:21:28;;;;;;;19.27;11.67;;;;;;;3.29;73.95;95533.28;5033014;28;20279;-79
2023/03/05 08:23:54;;;;;;;22.57;11.20;;;;;;;3.45;74.02;95540.78;5020436;28;20214;-79
2023/03/05 08:26:21;;;;;;;22.77;12.43;;;;;;;3.44;73.44;95530.59;5025003;28;20316;-80
2023/03/05 08:28:47;;;;;;;22.53;12.17;;;;;;;3.55;72.58;95531.53;5024236;28;20546;-80
2023/03/05 08:31:13;;;;;;;25.20;11.33;;;;;;;3.46;71.75;95529.59;5009401;28;20313;-79
2023/03/05 08:33:39;;;;;;;21.43;11.57;;;;;;;3.40;71.51;95530.81;5012554;28;20262;-79
2023/03/05 08:36:05;;;;;;;24.83;12.33;;;;;;;3.32;70.99;95524.56;5035445;28;20233;-79
2023/03/05 08:38:30;;;;;;;19.67;11.20;;;;;;;3.38;71.56;95521.59;5050821;28;20471;-81
2023/03/05 08:40:55;;;;;;;21.03;12.40;;;;;;;3.29;72.01;95524.78;5029075;28;20261;-81
2023/03/05 08:43:20;;;;;;;25.13;13.27;;;;;;;3.17;71.37;95528.97;5006475;28;20233;-80
2023/03/05 08:45:50;;;;;;;24.20;11.90;;;;;;;3.26;71.69;95522.41;5001505;28;20294;-81
2023/03/05 08:48:15;;;;;;;22.00;11.87;;;;;;;3.36;71.68;95516.56;5030698;28;20192;-80
2023/03/05 08:50:40;;;;;;;22.23;12.63;;;;;;;3.43;72.23;95516.94;5010294;28;20192;-81
2023/03/05 08:53:06;;;;;;;23.17;12.30;;;;;;;3.39;71.97;95515.53;5020453;28;20190;-81
2023/03/05 08:55:31;;;;;;;24.30;13.87;;;;;;;3.06;73.01;95514.31;5002946;28;20214;-81
2023/03/05 08:57:56;;;;;;;22.30;12.90;;;;;;;3.24;72.71;95517.38;5010366;28;20652;-81
2023/03/05 09:00:22;;;;;;;24.50;13.50;;;;;;;2.96;75.25;95515.03;5024417;28;20662;-81
2023/03/05 09:02:47;;;;;;;27.53;13.67;;;;;;;2.89;76.49;95518.91;5018278;28;20236;-79
2023/03/05 09:05:14;;;;;;;24.37;12.70;;;;;;;2.63;77.80;95518.06;5004756;28;20218;-81
2023/03/05 09:07:39;;;;;;;28.00;14.50;;;;;;;2.80;77.20;95517.78;5025672;28;20186;-80
2023/03/05 09:10:05;;;;;;;24.93;12.70;;;;;;;2.89;76.52;95511.22;5017867;28;20190;-80
2023/03/05 09:12:31;;;;;;;24.77;14.73;;;;;;;2.99;77.27;95509.69;5000242;28;20186;-81
2023/03/05 09:14:56;;;;;;;28.07;13.40;;;;;;;3.04;76.72;95516.16;5021120;28;20854;-81
2023/03/05 09:17:22;;;;;;;22.80;12.13;;;;;;;3.07;75.46;95507.41;5011884;28;20301;-80
2023/03/05 09:19:47;;;;;;;24.10;11.60;;;;;;;2.98;75.38;95506.28;5032976;28;20186;-80
2023/03/05 09:22:13;;;;;;;28.33;13.93;;;;;;;3.03;75.50;95506.81;5011680;28;20199;-79
2023/03/05 09:24:38;;;;;;;24.67;13.37;;;;;;;3.13;75.22;95505.28;5007215;28;20179;-79
2023/03/05 09:27:03;;;;;;;29.50;12.87;;;;;;;3.15;75.53;95506.91;5001532;28;20184;-80
2023/03/05 09:29:30;;;;;;;26.53;11.50;;;;;;;2.84;75.40;95501.28;5042738;28;20726;-80
2023/03/05 09:31:55;;;;;;;30.47;13.13;;;;;;;3.06;75.01;95500.66;5006469;28;20186;-80
2023/03/05 09:34:21;;;;;;;26.00;12.17;;;;;;;3.03;74.84;95491.44;5001907;28;20191;-80
2023/03/05 09:36:47;;;;;;;22.17;11.57;;;;;;;3.05;74.49;95496.44;5011004;28;20880;-80
2023/03/05 09:39:12;;;;;;;26.20;12.37;;;;;;;2.97;74.71;95496.97;5016487;28;20274;-80
2023/03/05 09:42:04;;;;;;;22.27;12.17;;;;;;;2.95;75.32;95487.72;5023524;28;20295;-80
2023/03/05 09:44:51;;;;;;;25.93;12.33;;;;;;;3.04;74.95;95490.50;5001957;28;20238;-80
2023/03/05 09:47:25;;;;;;;28.77;17.63;;;;;;;3.13;74.46;95487.31;5010920;28;20214;-78
2023/03/05 09:50:02;;;;;;;29.00;15.90;;;;;;;3.18;75.11;95484.44;5026791;28;20246;-79
2023/03/05 09:52:36;;;;;;;30.63;17.53;;;;;;;3.22;74.69;95485.88;5028974;28;20243;-80
2023/03/05 09:55:02;;;;;;;28.57;13.70;;;;;;;3.10;74.85;95484.97;5028625;28;20299;-78
2023/03/05 09:57:55;;;;;;;33.33;13.47;;;;;;;3.16;74.69;95480.31;5009546;28;20270;-80
2023/03/05 10:00:35;;;;;;;36.77;14.67;;;;;;;3.06;74.76;95483.50;5018456;28;20226;-80
2023/03/05 10:03:05;;;;;;;30.57;14.03;;;;;;;3.10;74.31;95479.84;5012941;28;20659;-79
2023/03/05 10:05:45;;;;;;;27.37;13.23;;;;;;;3.23;73.97;95473.84;5020974;28;20250;-80
2023/03/05 10:08:11;;;;;;;31.57;13.97;;;;;;;2.97;74.86;95473.88;5010048;28;20190;-79
2023/03/05 10:10:40;;;;;;;28.10;13.30;;;;;;;2.95;74.31;95478.28;5047031;28;20221;-80
2023/03/05 10:13:23;;;;;;;30.03;13.67;;;;;;;3.00;75.00;95472.84;5041904;28;20182;-81
2023/03/05 10:16:29;;;;;;;26.53;13.63;;;;;;;2.77;75.90;95479.53;5028730;28;20207;-80
2023/03/05 10:19:22;;;;;;;31.60;14.10;;;;;;;2.67;76.37;95474.19;5014184;28;20186;-81
2023/03/05 10:22:03;;;;;;;24.03;13.17;;;;;;;2.73;77.04;95478.06;5028162;28;20174;-80
2023/03/05 10:25:18;;;;;;;30.20;14.23;;;;;;;2.75;76.86;95471.13;5020952;28;20210;-81
2023/03/05 10:27:54;;;;;;;30.47;15.43;;;;;;;2.81;76.87;95471.50;5011269;28;20271;-81
2023/03/05 10:30:31;;;;;;;28.70;14.43;;;;;;;2.78;77.08;95476.84;4994502;28;20195;-81
2023/03/05 10:33:06;;;;;;;28.77;14.37;;;;;;;2.78;76.90;95468.34;4994562;28;20609;-81
2023/03/05 10:35:52;;;;;;;29.43;15.43;;;;;;;2.87;77.42;95467.72;4993885;28;20233;-80
2023/03/05 10:38:49;;;;;;;34.30;16.87;;;;;;;2.98;77.39;95467.00;4977326;28;20258;-80
2023/03/05 10:41:24;;;;;;;34.00;19.13;;;;;;;2.90;77.69;95457.25;4990408;28;20222;-80
2023/03/05 10:44:39;;;;;;;33.57;17.57;;;;;;;2.90;77.86;95459.81;4993443;28;20209;-81
2023/03/05 10:47:20;;;;;;;32.77;17.77;;;;;;;2.74;79.00;95457.47;4990337;28;20210;-81
2023/03/05 10:49:54;;;;;;;34.53;18.80;;;;;;;2.81;78.74;95457.88;4984068;28;20639;-81
2023/03/05 10:52:39;;;;;;;29.90;16.60;;;;;;;2.76;79.32;95450.50;4980366;28;20684;-80
2023/03/05 10:55:18;;;;;;;31.87;17.37;;;;;;;2.82;79.17;95449.25;4992984;28;20208;-80
2023/03/05 10:57:43;;;;;;;33.23;17.73;;;;;;;2.79;79.37;95441.75;4977395;28;20205;-80
2023/03/05 11:00:25;;;;;;;31.10;17.60;;;;;;;2.70;80.57;95443.19;4975776;28;20207;-81
2023/03/05 11:03:00;;;;;;;29.10;16.13;;;;;;;2.70;79.97;95443.19;4993999;28;20202;-81
2023/03/05 11:05:37;;;;;;;32.77;18.00;;;;;;;2.66;80.47;95439.22;5010929;28;21098;-80
2023/03/05 11:08:18;;;;;;;35.87;17.60;;;;;;;2.62;80.23;95435.19;5024921;28;20194;-79
2023/03/05 11:10:43;;;;;;;37.00;19.00;;;;;;;2.68;80.47;95439.09;5015996;28;20202;-80
2023/03/05 11:13:23;;;;;;;36.50;21.10;;;;;;;2.73;80.29;95437.03;5000272;28;20187;-80
2023/03/05 11:15:59;;;;;;;30.53;17.07;;;;;;;2.77;80.82;95429.06;5005002;28;20578;-80
2023/03/05 11:18:24;;;;;;;37.60;19.03;;;;;;;2.88;79.41;95427.50;5012143;28;20756;-81
2023/03/05 11:20:50;;;;;;;30.87;16.93;;;;;;;2.87;79.29;95419.00;5011199;28;20324;-81
2023/03/05 11:23:23;;;;;;;41.03;21.77;;;;;;;2.98;79.33;95416.50;5010175;28;20666;-80
2023/03/05 11:25:54;;;;;;;32.73;17.20;;;;;;;3.04;79.42;95418.66;5023284;28;20207;-80
2023/03/05 11:28:26;;;;;;;39.07;21.23;;;;;;;3.33;78.64;95413.25;5013652;28;20200;-80
2023/03/05 11:31:14;;;;;;;34.63;18.83;;;;;;;3.27;78.32;95406.81;5002365;28;20282;-81